Terminal Aerodrome Forecast
Issued by NWS

Home | Current Version | Previous Version | Text Only | Print | Product List | Glossary On
Versions: 1 2 3 4 5 6 7 8 9 10 11 12
000
FTUS44 KTSA 301100
TAFBVO
TAF
KBVO 301120Z 3012/3112 00000KT P6SM VCSH BKN080
     FM301500 VRB03KT 4SM -RA OVC025
     FM310300 09005KT P6SM VCSH OVC015 PROB30 3103/3106 4SM -RA BR
      BKN015
     FM310900 00000KT 4SM BR OVC007=

USA.gov is the U.S. government's official web portal to all federal, state and local government web resources and services.